Observation data for Memphis on 02/17/2018      Previous  Date       Current Mesonet Observations  Soil Data  Daily Summary Page  Observations in Plain Language
KMES 170600Z 20006KT 02/01 A3012 RMK A01 T00150009  RH  097%=      5-min Rain = 0.02
KMES 170605Z 18004KT 02/01 A301 RMK A01 T00150009  RH  097%=      5-min Rain = 0.01
KMES 170610Z 16004KT 02/01 A3009 RMK A01 T00150008  RH  097%=      5-min Rain = 0.03
KMES 170615Z 17004KT 01/01 A3009 RMK A01 T00140008  RH  097%=      5-min Rain = 0.01
KMES 170620Z 23005KT 01/01 A3011 RMK A01 T00140009  RH  097%=      5-min Rain = 0
KMES 170625Z 27005KT 02/01 A3014 RMK A01 T00150009  RH  097%=      5-min Rain = 0.01
KMES 170630Z 25005KT 02/01 A3014 RMK A01 T00160010  RH  097%=      5-min Rain = 0.01
KMES 170635Z 25005KT 02/01 A3015 RMK A01 T00160011  RH  097%=      5-min Rain = 0.01
KMES 170640Z 25006KT 02/01 A3015 RMK A01 T00160010  RH  097%=      5-min Rain = 0.02
KMES 170645Z 25006KT 02/01 A3015 RMK A01 T00150010  RH  097%=      5-min Rain = 0.01
KMES 170650Z 25005KT 02/01 A3015 RMK A01 T00150009  RH  097%=      5-min Rain = 0.01
KMES 170655Z 24005KT 02/01 A3014 RMK A01 T00150009  RH  097%=      5-min Rain = 0.02
KMES 170700Z 20005KT 02/01 A3013 RMK A01 T00150010  RH  097%=      5-min Rain = 0.01
KMES 170705Z 18005KT 01/01 A3011 RMK A01 T00140009  RH  097%=      5-min Rain = 0.02
KMES 170710Z 18005KT 01/01 A3011 RMK A01 T00140009  RH  097%=      5-min Rain = 0.02
KMES 170715Z 17005KT 02/01 A301 RMK A01 T00150009  RH  098%=      5-min Rain = 0.01
KMES 170720Z 17006KT 02/01 A301 RMK A01 T00150010  RH  098%=      5-min Rain = 0.02
KMES 170725Z 17006KT 01/01 A301 RMK A01 T00140009  RH  098%=      5-min Rain = 0.01
KMES 170730Z 17007KT 01/01 A301 RMK A01 T00130008  RH  098%=      5-min Rain = 0.02
KMES 170735Z 16007KT 01/01 A3008 RMK A01 T00120007  RH  098%=      5-min Rain = 0.02
KMES 170740Z 16007KT 01/01 A3007 RMK A01 T00110006  RH  098%=      5-min Rain = 0.01
KMES 170745Z 19004KT 01/01 A3008 RMK A01 T00110006  RH  098%=      5-min Rain = 0.01
KMES 170750Z 17005KT 01/01 A3007 RMK A01 T00110006  RH  098%=      5-min Rain = 0.01
KMES 170755Z 13007KT 01/01 A3004 RMK A01 T00110007  RH  098%=      5-min Rain = 0
KMES 170800Z 15007KT 01/01 A3004 RMK A01 T00120008  RH  098%=      5-min Rain = 0
KMES 170805Z 14007KT 01/01 A3002 RMK A01 T00120008  RH  098%=      5-min Rain = 0
KMES 170810Z 14007KT 01/01 A3002 RMK A01 T00140010  RH  099%=      5-min Rain = 0
KMES 170815Z 15008G14KT 01/01 A3002 RMK A01 T00130009  RH  098%=      5-min Rain = 0
KMES 170820Z 14010KT 01/01 A3001 RMK A01 T00130010  RH  099%=      5-min Rain = 0
KMES 170825Z 14013KT 01/01 A2999 RMK A01 T00130009  RH  099%=      5-min Rain = 0
KMES 170830Z 15011KT 01/01 A2999 RMK A01 T00130009  RH  099%=      5-min Rain = 0
KMES 170835Z 15008KT 01/01 A30 RMK A01 T00120008  RH  098%=      5-min Rain = 0
KMES 170840Z 16007KT 01/01 A30 RMK A01 T00120008  RH  098%=      5-min Rain = 0
KMES 170845Z 16007KT 01/01 A30 RMK A01 T00110007  RH  098%=      5-min Rain = 0
KMES 170850Z 16006KT 01/01 A30 RMK A01 T00110007  RH  098%=      5-min Rain = 0
KMES 170855Z 17005KT 01/01 A30 RMK A01 T00100006  RH  098%=      5-min Rain = 0
KMES 170900Z 17005KT 01/01 A30 RMK A01 T00110007  RH  098%=      5-min Rain = 0
KMES 170905Z 18005KT 01/01 A30 RMK A01 T00110007  RH  098%=      5-min Rain = 0
KMES 170910Z 17005KT 01/01 A2999 RMK A01 T00110007  RH  098%=      5-min Rain = 0
KMES 170915Z 16006KT 01/01 A2998 RMK A01 T00110007  RH  098%=      5-min Rain = 0
KMES 170920Z 19005KT 01/01 A2999 RMK A01 T00110007  RH  098%=      5-min Rain = 0
KMES 170925Z 18007KT 01/01 A2999 RMK A01 T00110007  RH  098%=      5-min Rain = 0
KMES 170930Z 18006KT 01/01 A2999 RMK A01 T00110007  RH  098%=      5-min Rain = 0
KMES 170935Z 18005KT 01/01 A2999 RMK A01 T00110007  RH  098%=      5-min Rain = 0
KMES 170940Z 18005KT 01/01 A2999 RMK A01 T00120008  RH  098%=      5-min Rain = 0
KMES 170945Z 17006KT 01/01 A2997 RMK A01 T00120008  RH  098%=      5-min Rain = 0
KMES 170950Z 18006KT 01/01 A2997 RMK A01 T00120008  RH  098%=      5-min Rain = 0
KMES 170955Z 18007KT 01/01 A2997 RMK A01 T00120008  RH  098%=      5-min Rain = 0
KMES 171000Z 18006KT 01/01 A2997 RMK A01 T00120008  RH  098%=      5-min Rain = 0
KMES 171005Z 19005KT 01/01 A2997 RMK A01 T00120008  RH  098%=      5-min Rain = 0
KMES 171010Z 19004KT 01/01 A2998 RMK A01 T00130009  RH  098%=      5-min Rain = 0
KMES 171015Z 19004KT 01/01 A2998 RMK A01 T00140009  RH  098%=      5-min Rain = 0
KMES 171020Z 20003KT 01/01 A2999 RMK A01 T00140010  RH  098%=      5-min Rain = 0
KMES 171025Z 22002KT 02/01 A2999 RMK A01 T00150010  RH  098%=      5-min Rain = 0
KMES 171030Z 18002KT 02/01 A2998 RMK A01 T00150010  RH  098%=      5-min Rain = 0
KMES 171035Z 15003KT 01/01 A2998 RMK A01 T00140009  RH  098%=      5-min Rain = 0
KMES 171040Z 14004KT 01/01 A2997 RMK A01 T00130009  RH  098%=      5-min Rain = 0
KMES 171045Z 14002KT 01/01 A2997 RMK A01 T00130008  RH  098%=      5-min Rain = 0
KMES 171050Z 02001KT 01/01 A2998 RMK A01 T00120007  RH  098%=      5-min Rain = 0
KMES 171055Z 34000KT 01/01 A2999 RMK A01 T00110007  RH  098%=      5-min Rain = 0
KMES 171100Z 02002KT 01/01 A2999 RMK A01 T00110006  RH  098%=      5-min Rain = 0
KMES 171105Z 05003KT 01/01 A2999 RMK A01 T00090005  RH  098%=      5-min Rain = 0
KMES 171110Z 06002KT 01/01 A2998 RMK A01 T00090005  RH  098%=      5-min Rain = 0
KMES 171115Z 06003KT 01/00 A2998 RMK A01 T00090004  RH  098%=      5-min Rain = 0
KMES 171120Z 07003KT 01/00 A2998 RMK A01 T00070003  RH  098%=      5-min Rain = 0
KMES 171125Z 10004KT 01/00 A2997 RMK A01 T00070002  RH  098%=      5-min Rain = 0
KMES 171130Z 14004KT 01/00 A2997 RMK A01 T00070003  RH  098%=      5-min Rain = 0
KMES 171135Z 14003KT 01/00 A2997 RMK A01 T00070004  RH  098%=      5-min Rain = 0
KMES 171140Z 35002KT 01/00 A2998 RMK A01 T00070003  RH  098%=      5-min Rain = 0
KMES 171145Z 34003KT 01/00 A2998 RMK A01 T00070003  RH  099%=      5-min Rain = 0
KMES 171150Z 16003KT 01/00 A2997 RMK A01 T00070004  RH  099%=      5-min Rain = 0
KMES 171155Z 28001KT 01/01 A2999 RMK A01 T00080005  RH  099%=      5-min Rain = 0
KMES 171200Z 12002KT 01/00 A2999 RMK A01 T00080004  RH  099%=      5-min Rain = 0
KMES 171205Z 15002KT 01/01 A2999 RMK A01 T00080005  RH  099%=      5-min Rain = 0
KMES 171210Z 19002KT 01/01 A2999 RMK A01 T00090006  RH  099%=      5-min Rain = 0
KMES 171215Z 18003KT 01/01 A2999 RMK A01 T00100007  RH  099%=      5-min Rain = 0
KMES 171220Z 03002KT 01/01 A2999 RMK A01 T00090006  RH  099%=      5-min Rain = 0
KMES 171225Z 09001KT 01/00 A2999 RMK A01 T00080004  RH  099%=      5-min Rain = 0
KMES 171230Z 02002KT 01/00 A2999 RMK A01 T00070004  RH  099%=      5-min Rain = 0
KMES 171235Z 00003KT 01/00 A30 RMK A01 T00060003  RH  099%=      5-min Rain = 0
KMES 171240Z 34002KT 01/00 A30 RMK A01 T00060003  RH  099%=      5-min Rain = 0
KMES 171245Z 00003KT 01/00 A30 RMK A01 T00060003  RH  099%=      5-min Rain = 0
KMES 171250Z 01001KT 01/00 A30 RMK A01 T00050002  RH  099%=      5-min Rain = 0
KMES 171255Z 00003KT 01/00 A3001 RMK A01 T00050002  RH  099%=      5-min Rain = 0
KMES 171300Z 00004KT 01/00 A3001 RMK A01 T00050002  RH  099%=      5-min Rain = 0
KMES 171305Z 36003KT 00/00 A3001 RMK A01 T00040002  RH  099%=      5-min Rain = 0
KMES 171310Z 00003KT 00/00 A3001 RMK A01 T00040001  RH  099%=      5-min Rain = 0
KMES 171315Z 31002KT 00/00 A3001 RMK A01 T00040002  RH  099%=      5-min Rain = 0
KMES 171320Z 28002KT 01/00 A30 RMK A01 T00050003  RH  099%=      5-min Rain = 0
KMES 171325Z 28001KT 00/00 A3001 RMK A01 T00040002  RH  099%=      5-min Rain = 0
KMES 171330Z 29001KT 00/00 A3002 RMK A01 T00040001  RH  099%=      5-min Rain = 0
KMES 171335Z 31001KT 00/00 A3002 RMK A01 T00030000  RH  099%=      5-min Rain = 0
KMES 171340Z 31002KT 01/00 A3003 RMK A01 T00050003  RH  100%=      5-min Rain = 0
KMES 171345Z 31002KT 01/00 A3002 RMK A01 T00060003  RH  099%=      5-min Rain = 0
KMES 171350Z 32002KT 01/00 A3003 RMK A01 T00060003  RH  099%=      5-min Rain = 0
KMES 171355Z 32002KT 01/00 A3003 RMK A01 T00060003  RH  099%=      5-min Rain = 0
KMES 171400Z 33003KT 01/00 A3003 RMK A01 T00060003  RH  099%=      5-min Rain = 0
KMES 171405Z 33002KT 00/00 A3003 RMK A01 T00040001  RH  099%=      5-min Rain = 0
KMES 171410Z 32002KT 00/00 A3003 RMK A01 T00040001  RH  099%=      5-min Rain = 0
KMES 171415Z 32004KT 00/00 A3003 RMK A01 T00040001  RH  099%=      5-min Rain = 0
KMES 171420Z 32003KT 00/00 A3004 RMK A01 T00040002  RH  099%=      5-min Rain = 0
KMES 171425Z 33003KT 01/00 A3004 RMK A01 T00050002  RH  099%=      5-min Rain = 0
KMES 171430Z 34003KT 01/00 A3004 RMK A01 T00050003  RH  099%=      5-min Rain = 0
KMES 171435Z 34003KT 01/00 A3004 RMK A01 T00060004  RH  100%=      5-min Rain = 0
KMES 171440Z 34003KT 01/01 A3005 RMK A01 T00070005  RH  100%=      5-min Rain = 0
KMES 171445Z 33003KT 01/01 A3005 RMK A01 T00090007  RH  100%=      5-min Rain = 0
KMES 171450Z 34003KT 01/01 A3006 RMK A01 T00110008  RH  100%=      5-min Rain = 0
KMES 171455Z 35002KT 01/01 A3006 RMK A01 T00120009  RH  100%=      5-min Rain = 0.01
KMES 171500Z 34002KT 01/01 A3006 RMK A01 T00130010  RH  099%=      5-min Rain = 0
KMES 171505Z 35002KT 01/01 A3007 RMK A01 T00140011  RH  099%=      5-min Rain = 0
KMES 171510Z 34002KT 02/01 A3007 RMK A01 T00150012  RH  099%=      5-min Rain = 0
KMES 171515Z 32002KT 02/01 A3007 RMK A01 T00160013  RH  099%=      5-min Rain = 0
KMES 171520Z 32001KT 02/01 A3008 RMK A01 T00170014  RH  099%=      5-min Rain = 0
KMES 171525Z 33000KT 02/02 A3008 RMK A01 T00180015  RH  099%=      5-min Rain = 0
KMES 171530Z 33000KT 02/02 A3009 RMK A01 T00210018  RH  100%=      5-min Rain = 0
KMES 171535Z 00000KT 03/02 A3009 RMK A01 T00250023  RH  100%=      5-min Rain = 0
KMES 171540Z 29002KT 03/03 A3009 RMK A01 T00310029  RH  100%=      5-min Rain = 0
KMES 171545Z 29004KT 04/04 A3009 RMK A01 T00370035  RH  100%=      5-min Rain = 0
KMES 171550Z 33005G11KT 05/05 A301 RMK A01 T00520050  RH  100%=      5-min Rain = 0
KMES 171555Z 35013KT 07/06 A301 RMK A01 T00740064  RH  095%=      5-min Rain = 0
KMES 171600Z 35013KT 09/06 A301 RMK A01 T00900055  RH  080%=      5-min Rain = 0
KMES 171605Z 35014KT 10/05 A301 RMK A01 T00970046  RH  071%=      5-min Rain = 0
KMES 171610Z 36016G21KT 10/04 A301 RMK A01 T01000042  RH  068%=      5-min Rain = 0
KMES 171615Z 36016G21KT 10/04 A301 RMK A01 T01020040  RH  066%=      5-min Rain = 0
KMES 171620Z 01013G19KT 10/04 A3011 RMK A01 T01040041  RH  066%=      5-min Rain = 0
KMES 171625Z 01017KT 11/03 A3011 RMK A01 T01050034  RH  062%=      5-min Rain = 0
KMES 171630Z 01020G27KT 11/03 A3011 RMK A01 T01070025  RH  058%=      5-min Rain = 0
KMES 171635Z 01020G27KT 11/02 A3012 RMK A01 T01100019  RH  054%=      5-min Rain = 0
KMES 171640Z 01020G27KT 11/02 A3012 RMK A01 T01110017  RH  053%=      5-min Rain = 0
KMES 171645Z 01022G29KT 11/01 A3012 RMK A01 T01120010  RH  050%=      5-min Rain = 0
KMES 171650Z 01019G26KT 11/01 A3013 RMK A01 T01130013  RH  051%=      5-min Rain = 0
KMES 171655Z 02020G27KT 11/01 A3013 RMK A01 T01130008  RH  049%=      5-min Rain = 0
KMES 171700Z 02019G26KT 12/01 A3013 RMK A01 T01150014  RH  050%=      5-min Rain = 0
KMES 171705Z 02017G25KT 12/01 A3014 RMK A01 T01160012  RH  050%=      5-min Rain = 0
KMES 171710Z 02016G25KT 12/02 A3014 RMK A01 T01190018  RH  051%=      5-min Rain = 0
KMES 171715Z 01017G24KT 12/02 A3014 RMK A01 T01200017  RH  050%=      5-min Rain = 0
KMES 171720Z 01018G25KT 12/02 A3014 RMK A01 T01210016  RH  049%=      5-min Rain = 0
KMES 171725Z 01017G26KT 12/02 A3015 RMK A01 T01230016  RH  049%=      5-min Rain = 0
KMES 171730Z 02019G26KT 12/01 A3015 RMK A01 T01210009  RH  047%=      5-min Rain = 0
KMES 171735Z 02019G26KT 12/01 A3015 RMK A01 T01190007  RH  046%=      5-min Rain = 0
KMES 171740Z 02020G27KT 12/00 A3015 RMK A01 T01190004  RH  046%=      5-min Rain = 0
KMES 171745Z 02019G25KT 12/00 A3015 RMK A01 T01170001  RH  045%=      5-min Rain = 0
KMES 171750Z 02018G25KT 12/00 A3016 RMK A01 T01180004  RH  046%=      5-min Rain = 0
KMES 171755Z 02019G24KT 12/00 A3016 RMK A01 T01190003  RH  045%=      5-min Rain = 0
KMES 171800Z 02019G25KT 12/00 A3016 RMK A01 T011900-0  RH  044%=      5-min Rain = 0
KMES 171805Z 02016G23KT 12/00 A3016 RMK A01 T011900-0  RH  044%=      5-min Rain = 0
KMES 171810Z 02018G23KT 12/M00 A3016 RMK A01 T01211002  RH  043%=      5-min Rain = 0
KMES 171815Z 02015G21KT 12/00 A3016 RMK A01 T01220002  RH  044%=      5-min Rain = 0
KMES 171820Z 02017G24KT 12/M00 A3016 RMK A01 T01241003  RH  042%=      5-min Rain = 0
KMES 171825Z 03017KT 13/M00 A3016 RMK A01 T01271003  RH  041%=      5-min Rain = 0
KMES 171830Z 02017G22KT 13/M00 A3016 RMK A01 T01271001  RH  042%=      5-min Rain = 0
KMES 171835Z 02015G20KT 13/00 A3016 RMK A01 T01270001  RH  042%=      5-min Rain = 0
KMES 171840Z 02014G22KT 13/00 A3016 RMK A01 T01280004  RH  043%=      5-min Rain = 0
KMES 171845Z 02015G22KT 13/M01 A3016 RMK A01 T01281009  RH  039%=      5-min Rain = 0
KMES 171850Z 02015G20KT 13/M01 A3016 RMK A01 T01281008  RH  039%=      5-min Rain = 0
KMES 171855Z 02015KT 13/M02 A3016 RMK A01 T01281016  RH  037%=      5-min Rain = 0
KMES 171900Z 01014G20KT 13/M01 A3016 RMK A01 T01311008  RH  039%=      5-min Rain = 0
KMES 171905Z 02015KT 13/M02 A3016 RMK A01 T01321020  RH  035%=      5-min Rain = 0
KMES 171910Z 02014KT 13/M02 A3016 RMK A01 T01331021  RH  035%=      5-min Rain = 0
KMES 171915Z 02012G17KT 14/M02 A3017 RMK A01 T01351019  RH  035%=      5-min Rain = 0
KMES 171920Z 02014KT 14/M02 A3016 RMK A01 T01361019  RH  035%=      5-min Rain = 0
KMES 171925Z 01013KT 14/M03 A3016 RMK A01 T01351025  RH  033%=      5-min Rain = 0
KMES 171930Z 01013KT 14/M01 A3016 RMK A01 T01351014  RH  036%=      5-min Rain = 0
KMES 171935Z 02014G19KT 14/M02 A3016 RMK A01 T01381023  RH  033%=      5-min Rain = 0
KMES 171940Z 02013G18KT 14/M03 A3016 RMK A01 T01361026  RH  033%=      5-min Rain = 0
KMES 171945Z 01013G18KT 13/M03 A3016 RMK A01 T01341029  RH  032%=      5-min Rain = 0
KMES 171950Z 00014KT 13/M03 A3016 RMK A01 T01331028  RH  033%=      5-min Rain = 0
KMES 171955Z 01012G17KT 13/M03 A3016 RMK A01 T01341026  RH  033%=      5-min Rain = 0
KMES 172000Z 02011KT 14/M03 A3015 RMK A01 T01371028  RH  032%=      5-min Rain = 0
KMES 172005Z 01012G17KT 14/M03 A3015 RMK A01 T01361026  RH  033%=      5-min Rain = 0
KMES 172010Z 02011KT 14/M03 A3015 RMK A01 T01371032  RH  031%=      5-min Rain = 0
KMES 172015Z 02010KT 14/M03 A3015 RMK A01 T01381025  RH  033%=      5-min Rain = 0
KMES 172020Z 03011KT 14/M02 A3015 RMK A01 T01411024  RH  032%=      5-min Rain = 0
KMES 172025Z 03011KT 14/M04 A3016 RMK A01 T01391037  RH  030%=      5-min Rain = 0
KMES 172030Z 02011G16KT 14/M03 A3015 RMK A01 T01391031  RH  031%=      5-min Rain = 0
KMES 172035Z 02011KT 14/M03 A3015 RMK A01 T01381028  RH  032%=      5-min Rain = 0
KMES 172040Z 02009G18KT 14/M03 A3015 RMK A01 T01381029  RH  032%=      5-min Rain = 0
KMES 172045Z 03009G14KT 14/M03 A3016 RMK A01 T01391031  RH  031%=      5-min Rain = 0
KMES 172050Z 04010KT 14/M05 A3016 RMK A01 T01401045  RH  028%=      5-min Rain = 0
KMES 172055Z 04008KT 14/M04 A3016 RMK A01 T01411044  RH  028%=      5-min Rain = 0
KMES 172100Z 04008KT 14/M04 A3016 RMK A01 T01431042  RH  028%=      5-min Rain = 0
KMES 172105Z 04009G15KT 15/M04 A3016 RMK A01 T01471041  RH  027%=      5-min Rain = 0
KMES 172110Z 05009KT 15/M05 A3016 RMK A01 T01451050  RH  026%=      5-min Rain = 0
KMES 172115Z 05009KT 15/M05 A3016 RMK A01 T01461048  RH  026%=      5-min Rain = 0
KMES 172120Z 02007KT 15/M04 A3016 RMK A01 T01471041  RH  028%=      5-min Rain = 0
KMES 172125Z 03008G14KT 15/M04 A3015 RMK A01 T01461043  RH  027%=      5-min Rain = 0
KMES 172130Z 04005KT 15/M04 A3015 RMK A01 T01501041  RH  027%=      5-min Rain = 0
KMES 172135Z 06007KT 15/M04 A3015 RMK A01 T01541041  RH  026%=      5-min Rain = 0
KMES 172140Z 06007KT 15/M05 A3015 RMK A01 T01541051  RH  024%=      5-min Rain = 0
KMES 172145Z 07006KT 15/M05 A3015 RMK A01 T01541048  RH  025%=      5-min Rain = 0
KMES 172150Z 04006KT 15/M06 A3016 RMK A01 T01541056  RH  023%=      5-min Rain = 0
KMES 172155Z 03006KT 16/M04 A3016 RMK A01 T01551044  RH  025%=      5-min Rain = 0
KMES 172200Z 07005G13KT 16/M05 A3016 RMK A01 T01551051  RH  024%=      5-min Rain = 0
KMES 172205Z 07003G10KT 16/M04 A3016 RMK A01 T01571044  RH  025%=      5-min Rain = 0
KMES 172210Z 05008KT 16/M05 A3016 RMK A01 T01581046  RH  025%=      5-min Rain = 0
KMES 172215Z 07005KT 15/M06 A3016 RMK A01 T01531057  RH  023%=      5-min Rain = 0
KMES 172220Z 06008KT 15/M06 A3016 RMK A01 T01531056  RH  024%=      5-min Rain = 0
KMES 172225Z 06006KT 15/M05 A3016 RMK A01 T01511050  RH  025%=      5-min Rain = 0
KMES 172230Z 09006KT 15/M06 A3016 RMK A01 T01521055  RH  024%=      5-min Rain = 0
KMES 172235Z 13008KT 15/M05 A3016 RMK A01 T01521050  RH  025%=      5-min Rain = 0
KMES 172240Z 10008KT 15/M05 A3016 RMK A01 T01511049  RH  025%=      5-min Rain = 0
KMES 172245Z 09007KT 15/M06 A3016 RMK A01 T01511055  RH  024%=      5-min Rain = 0
KMES 172250Z 10007KT 15/M05 A3016 RMK A01 T01511053  RH  024%=      5-min Rain = 0
KMES 172255Z 10007KT 15/M05 A3016 RMK A01 T01521053  RH  024%=      5-min Rain = 0
KMES 172300Z 10005KT 15/M05 A3016 RMK A01 T01521050  RH  025%=      5-min Rain = 0
KMES 172305Z 10007KT 15/M05 A3016 RMK A01 T01521053  RH  024%=      5-min Rain = 0
KMES 172310Z 09007G12KT 15/M06 A3016 RMK A01 T01511056  RH  024%=      5-min Rain = 0
KMES 172315Z 10004KT 15/M06 A3016 RMK A01 T01501058  RH  024%=      5-min Rain = 0
KMES 172320Z 09005KT 15/M06 A3016 RMK A01 T01501055  RH  024%=      5-min Rain = 0
KMES 172325Z 11007KT 15/M05 A3016 RMK A01 T01491046  RH  026%=      5-min Rain = 0
KMES 172330Z 11006KT 15/M04 A3016 RMK A01 T01481044  RH  027%=      5-min Rain = 0
KMES 172335Z 10005KT 15/M05 A3016 RMK A01 T01471053  RH  025%=      5-min Rain = 0
KMES 172340Z 11006KT 15/M04 A3017 RMK A01 T01471044  RH  027%=      5-min Rain = 0
KMES 172345Z 12005KT 14/M03 A3017 RMK A01 T01431034  RH  030%=      5-min Rain = 0
KMES 172350Z 12006KT 14/M03 A3017 RMK A01 T01401029  RH  031%=      5-min Rain = 0
KMES 172355Z 12006KT 14/M02 A3017 RMK A01 T01371022  RH  034%=      5-min Rain = 0
KMES 180000Z 12006KT 13/M01 A3017 RMK A01 T01331012  RH  037%=      5-min Rain = 0
KMES 180005Z 12005KT 13/M01 A3017 RMK A01 T01281005  RH  040%=      5-min Rain = 0
KMES 180010Z 13005KT 12/00 A3017 RMK A01 T01240000  RH  043%=      5-min Rain = 0
KMES 180015Z 13006KT 12/00 A3017 RMK A01 T01190000  RH  044%=      5-min Rain = 0
KMES 180020Z 13006KT 12/M01 A3017 RMK A01 T01151006  RH  044%=      5-min Rain = 0
KMES 180025Z 12006KT 11/M01 A3017 RMK A01 T01111005  RH  045%=      5-min Rain = 0
KMES 180030Z 12006KT 11/M01 A3017 RMK A01 T01061005  RH  047%=      5-min Rain = 0
KMES 180035Z 12006KT 10/M00 A3017 RMK A01 T01031003  RH  048%=      5-min Rain = 0
KMES 180040Z 12005KT 10/M00 A3018 RMK A01 T01001004  RH  049%=      5-min Rain = 0
KMES 180045Z 12005KT 10/M01 A3018 RMK A01 T00981006  RH  049%=      5-min Rain = 0
KMES 180050Z 12003KT 10/M01 A3018 RMK A01 T00961007  RH  049%=      5-min Rain = 0
KMES 180055Z 11004KT 09/M01 A3018 RMK A01 T00941007  RH  050%=      5-min Rain = 0
KMES 180100Z 11004KT 09/M01 A3018 RMK A01 T00931012  RH  048%=      5-min Rain = 0
KMES 180105Z 12004KT 09/M01 A3018 RMK A01 T00901009  RH  051%=      5-min Rain = 0
KMES 180110Z 12004KT 09/M01 A3018 RMK A01 T00871008  RH  052%=      5-min Rain = 0
KMES 180115Z 12004KT 08/M00 A3018 RMK A01 T00841004  RH  054%=      5-min Rain = 0
KMES 180120Z 15003KT 08/M01 A3019 RMK A01 T00831009  RH  053%=      5-min Rain = 0
KMES 180125Z 16002KT 09/M01 A3019 RMK A01 T00861013  RH  050%=      5-min Rain = 0
KMES 180130Z 16003KT 09/M01 A3019 RMK A01 T00861011  RH  051%=      5-min Rain = 0
KMES 180135Z 16002KT 08/M01 A3019 RMK A01 T00821009  RH  053%=      5-min Rain = 0
KMES 180140Z 15003KT 08/M01 A3019 RMK A01 T00781012  RH  054%=      5-min Rain = 0
KMES 180145Z 16004KT 08/M01 A3019 RMK A01 T00791014  RH  052%=      5-min Rain = 0
KMES 180150Z 15003KT 08/M01 A302 RMK A01 T00811013  RH  052%=      5-min Rain = 0
KMES 180155Z 14002KT 08/M01 A302 RMK A01 T00771013  RH  054%=      5-min Rain = 0
KMES 180200Z 13002KT 07/M01 A302 RMK A01 T00741014  RH  054%=      5-min Rain = 0
KMES 180205Z 13001KT 07/M02 A3019 RMK A01 T00711015  RH  055%=      5-min Rain = 0
KMES 180210Z 13002KT 07/M01 A3019 RMK A01 T00691012  RH  057%=      5-min Rain = 0
KMES 180215Z 14002KT 07/M02 A3019 RMK A01 T00671015  RH  056%=      5-min Rain = 0
KMES 180220Z 14002KT 06/M02 A3019 RMK A01 T00641017  RH  057%=      5-min Rain = 0
KMES 180225Z 14002KT 06/M02 A3019 RMK A01 T00611016  RH  058%=      5-min Rain = 0
KMES 180230Z 14002KT 06/M01 A3019 RMK A01 T00591014  RH  060%=      5-min Rain = 0
KMES 180235Z 16003KT 06/M01 A302 RMK A01 T00621012  RH  060%=      5-min Rain = 0
KMES 180240Z 17003KT 06/M01 A302 RMK A01 T00621013  RH  059%=      5-min Rain = 0
KMES 180245Z 18004KT 06/M02 A302 RMK A01 T00611015  RH  059%=      5-min Rain = 0
KMES 180250Z 17003KT 06/M02 A302 RMK A01 T00611015  RH  059%=      5-min Rain = 0
KMES 180255Z 17003KT 06/M01 A302 RMK A01 T00581009  RH  063%=      5-min Rain = 0
KMES 180300Z 16002KT 05/M01 A302 RMK A01 T00511008  RH  066%=      5-min Rain = 0
KMES 180305Z 16000KT 04/M01 A302 RMK A01 T00411005  RH  072%=      5-min Rain = 0
KMES 180310Z 15000KT 03/M00 A302 RMK A01 T00341004  RH  077%=      5-min Rain = 0
KMES 180315Z 15000KT 03/M00 A302 RMK A01 T00331002  RH  078%=      5-min Rain = 0
KMES 180320Z 00000KT 03/M00 A302 RMK A01 T00321002  RH  079%=      5-min Rain = 0
KMES 180325Z 11001KT 03/M00 A3019 RMK A01 T00311002  RH  079%=      5-min Rain = 0
KMES 180330Z 10002KT 03/M00 A3019 RMK A01 T00301003  RH  080%=      5-min Rain = 0
KMES 180335Z 10002KT 03/M00 A3019 RMK A01 T00291003  RH  081%=      5-min Rain = 0
KMES 180340Z 10001KT 03/M00 A3019 RMK A01 T00301001  RH  081%=      5-min Rain = 0
KMES 180345Z 10000KT 03/00 A3019 RMK A01 T00340001  RH  080%=      5-min Rain = 0
KMES 180350Z 00000KT 04/00 A3019 RMK A01 T00350001  RH  079%=      5-min Rain = 0
KMES 180355Z 10000KT 03/M00 A3019 RMK A01 T00341001  RH  079%=      5-min Rain = 0
KMES 180400Z 01001KT 03/M00 A3019 RMK A01 T00321003  RH  079%=      5-min Rain = 0
KMES 180405Z 35002KT 03/M01 A3019 RMK A01 T00281005  RH  080%=      5-min Rain = 0
KMES 180410Z 35001KT 03/M00 A3019 RMK A01 T00291003  RH  080%=      5-min Rain = 0
KMES 180415Z 35001KT 03/M00 A3018 RMK A01 T00331003  RH  078%=      5-min Rain = 0
KMES 180420Z 35000KT 03/M01 A3018 RMK A01 T00321005  RH  077%=      5-min Rain = 0
KMES 180425Z 35000KT 03/M01 A3018 RMK A01 T00301007  RH  078%=      5-min Rain = 0
KMES 180430Z 35000KT 03/M01 A3018 RMK A01 T00251011  RH  078%=      5-min Rain = 0
KMES 180435Z 35001KT 02/M01 A3018 RMK A01 T00221012  RH  079%=      5-min Rain = 0
KMES 180440Z 35001KT 02/M02 A3018 RMK A01 T00181015  RH  080%=      5-min Rain = 0
KMES 180445Z 32002KT 01/M02 A3018 RMK A01 T00131016  RH  082%=      5-min Rain = 0
KMES 180450Z 32002KT 01/M01 A3018 RMK A01 T00141012  RH  084%=      5-min Rain = 0
KMES 180455Z 32002KT 02/M01 A3018 RMK A01 T00161009  RH  084%=      5-min Rain = 0
KMES 180500Z 32000KT 02/M01 A3019 RMK A01 T00171009  RH  084%=      5-min Rain = 0
KMES 180505Z 32000KT 02/M01 A3018 RMK A01 T00161010  RH  084%=      5-min Rain = 0
KMES 180510Z 00000KT 01/M01 A3018 RMK A01 T00141013  RH  084%=      5-min Rain = 0
KMES 180515Z 00000KT 01/M02 A3018 RMK A01 T00101015  RH  084%=      5-min Rain = 0
KMES 180520Z 00000KT 01/M02 A3018 RMK A01 T00081016  RH  085%=      5-min Rain = 0
KMES 180525Z 00000KT 01/M02 A3017 RMK A01 T00061016  RH  086%=      5-min Rain = 0
KMES 180530Z 01001KT 01/M02 A3017 RMK A01 T00051015  RH  087%=      5-min Rain = 0
KMES 180535Z 00001KT 01/M01 A3017 RMK A01 T00061014  RH  087%=      5-min Rain = 0
KMES 180540Z 36001KT 01/M01 A3017 RMK A01 T00061013  RH  088%=      5-min Rain = 0
KMES 180545Z 34001KT 01/M01 A3017 RMK A01 T00061012  RH  088%=      5-min Rain = 0
KMES 180550Z 33001KT 01/M01 A3017 RMK A01 T00061013  RH  088%=      5-min Rain = 0
KMES 180555Z 33001KT 01/M01 A3017 RMK A01 T00051014  RH  088%=      5-min Rain = 0

Page generated in 0.0102 seconds.